Marble Canyon, AZ

5:25 AM MST on October 01, 2014 (GMT -0700)
Page Municipal | Change Station
CLOSE
Current Station
Airport
Location: Page,
Elevation: 4308 ft
Nearby Weather Stations

Elev 4308 ft 36.92 °N, 111.45 °W | Updated 3 days ago

Partly Cloudy
Partly Cloudy
57 °F
Feels Like 57 °F
N
2
Wind Variable Wind from SW
Gusts 2 mph

Today
High -- | Low -- °F
--% Chance of Precip.
Yesterday
High -- | Low -- °F
Precip. -- in
6:21 AM 6:09 PM
Waxing Crescent, 47% visible
Pressure 29.70 in
Visibility 10.0 miles
Clouds Scattered Clouds 11000 ft
Dew Point 37 °F
Humidity 47%
Rainfall 0.00 in
Snow Depth 2 in , 0 in , 0 in
UV 0 out of 12
Pollen 4.70 out of 12
Air Quality Not available.
Flu Activity Not available.
METAR KPGA 271253Z AUTO VRB05KT 10SM SCT110 22/09 A2990 RMK AO2 SLP055 T02220094

More Conditions Fewer Conditions

Pressure 29.70 in
Visibility 10.0 miles
Clouds Scattered Clouds 11000 ft
Dew Point 37 °F
Humidity 47%
Rainfall 0.00 in
Snow Depth 2 in , 0 in , 0 in
UV 0 out of 12
Pollen 4.70 out of 12
Air Quality Not available.
Flu Activity Not available.
METAR KPGA 271253Z AUTO VRB05KT 10SM SCT110 22/09 A2990 RMK AO2 SLP055 T02220094

More Conditions Fewer Conditions

10-Day Weather Forecast

Almanac

Astronomy

Oct. 01, 2014 Rise Set
Actual Time 6:21 AM MST 6:09 PM MST
Civil Twilight 5:56 AM MST 6:35 PM MST
Nautical Twilight 5:26 AM MST 7:05 PM MST
Astronomical Twilight 4:55 AM MST 7:35 PM MST
Moon 1:19 PM MST 11:51 PM MST
Length of Visible Light 12h 39m
Length of Day
11h 47m
Tomorrow will be 2m 20s shorter.
Waxing Crescent, 47% of the Moon is Illuminated
Today
Waxing Crescent
Oct 1
First Quarter
Oct 8
Full
Oct 15
Last Quarter
Oct 23
New

Today's Extremes

State Highs State Lows

Community

WunderPhotos

Upload Photos

1,757,916 photos uploaded!

Nearby

Snow Depth

Station Depth Elevation
Workman Creek 2 in 6900 ft
Mormon Mountain 0 in 7500 ft
Hannagan Meadows 0 in 9020 ft
White Horse Lake 1 in 7180 ft
Maverick Fork 0 in 9200 ft

Earthquake Activity

City Distance Mag. Time & Date
No recent earthquake activity has been reported nearby.
Minimum magnitude displayed is 2.5.

Coastal Water Temperatures

Place Temperature
No Stations Reporting

Nearby Weather Stations